Latest Coastal Weather Observations for Flinders Island Airport

IDV60701

Issued at 8:41 pm EDT Monday 24 February 2020 (issued every 10 minutes, with the page automatically refreshed every 10 minutes)

About coastal observations | Map of coastal stations | Coastal observations for VIC | Marine services | Other Formats
Station Details ID: 099005 Name: FLINDERS ISLAND AIRPORT Lat: -40.09 Lon: 148.00 Height: 9.0 m
Data from the previous 72 hours. | See also: Recent months at Flinders Island Airport
Date/Time
EDT
Wind Sea
Height
m
Swell Vis
km
Cloud Weather Temp
°C
Press
hPa
Rain since
9am
mm
Dir  Spd
kts
Gust
kts
Height
m
Period
s
Dir
24/08:30pm NE 8 10 - - - - 10 Cloudy - 18.9 1017.1 0.0
24/08:00pm ENE 7 8 - - - - 10 Partly cloudy - 19.0 1016.8 0.0
24/07:55pm NE 7 8 - - - - 10 Partly cloudy - 18.9 1016.7 0.0
24/07:30pm NE 8 10 - - - - 10 Partly cloudy - 19.2 1017.1 0.0
24/07:00pm NW 5 7 - - - - 10 Cloudy - 20.2 1017.5 0.0
24/06:39pm W 3 4 - - - - 10 Partly cloudy - 20.1 1017.3 0.0
24/06:30pm SW 4 6 - - - - 10 Partly cloudy - 20.2 1017.2 0.0
24/06:00pm SW 5 6 - - - - 10 Cloudy - 20.3 1017.3 0.0
24/05:30pm SW 7 8 - - - - 10 Cloudy - 20.5 1017.4 0.0
24/05:00pm WSW 7 8 - - - - 10 Partly cloudy - 20.7 1017.5 0.0
24/04:30pm WSW 7 8 - - - - 10 Partly cloudy - 21.1 1017.5 0.0
24/04:00pm SW 7 9 - - - - 10 Partly cloudy - 21.1 1017.4 0.0
24/03:30pm SW 7 8 - - - - 10 Partly cloudy - 21.7 1017.8 0.0
24/03:00pm SW 7 9 - - - - 10 Cloudy - 21.7 1018.0 0.0
24/02:30pm W 4 5 - - - - 10 - - 21.4 1018.2 0.0
24/02:00pm WSW 8 10 - - - - 10 - - 21.3 1018.6 0.0
24/01:30pm WSW 10 12 - - - - 10 - - 20.6 1018.7 0.0
24/01:00pm WSW 10 13 - - - - 10 Partly cloudy - 20.6 1018.7 0.0
24/12:30pm SW 12 15 - - - - 10 - - 21.8 1018.9 0.0
24/12:00pm WSW 9 11 - - - - 10 Mostly cloudy - 21.8 1018.7 0.0
24/11:30am SSW 9 10 - - - - 10 - - 21.9 1018.8 0.0
24/11:00am SW 7 8 - - - - 10 - - 21.0 1019.0 0.0
24/10:30am SW 6 7 - - - - 10 Partly cloudy - 20.2 1018.9 0.0
24/10:28am SW 5 7 - - - - 10 Partly cloudy - 20.2 1018.9 0.0
24/10:09am SW 6 7 - - - - 10 Partly cloudy - 19.9 1019.2 0.0
24/10:05am SSW 5 7 - - - - 10 Partly cloudy - 20.1 1019.1 0.0
24/10:00am SW 4 6 - - - - 10 Partly cloudy - 19.6 1019.0 0.0
24/09:30am S 5 8 - - - - 10 Partly cloudy - 18.9 1018.9 0.0
24/09:00am S 5 6 - - - - 10 Mostly cloudy - 18.1 1019.1 0.0
24/08:30am CALM 0 0 - - - - 10 Cloudy - 17.8 1018.7 0.0
24/08:07am CALM 0 0 - - - - 10 Partly cloudy - 16.5 1018.7 0.0
24/08:00am CALM 0 0 - - - - 10 Partly cloudy - 16.2 1018.6 0.0
24/07:30am ENE 4 5 - - - - 10 Cloudy - 16.0 1018.5 0.0
24/07:18am NE 4 6 - - - - 10 Partly cloudy - 15.9 1018.4 0.0
24/07:00am ENE 2 4 - - - - 10 Partly cloudy - 15.2 1018.2 0.0
24/06:30am ENE 4 4 - - - - 10 Partly cloudy - 14.8 1017.6 0.0
24/06:00am ENE 3 5 - - - - 10 Partly cloudy - 14.8 1017.5 0.0
24/05:30am SSW 6 7 - - - - 10 Partly cloudy - 15.6 1017.7 0.0
24/05:00am SSW 6 8 - - - - 10 Partly cloudy - 17.5 1017.5 0.0
24/04:30am SSW 2 9 - - - - 10 Cloudy - 16.1 1017.5 0.0
24/04:09am CALM 0 0 - - - - 10 Partly cloudy - 15.8 1017.0 0.0
24/04:00am ENE 1 4 - - - - 10 Partly cloudy - 16.0 1016.9 0.0
24/03:30am ENE 5 5 - - - - 10 Partly cloudy - 16.0 1017.0 0.0
24/03:00am ENE 2 5 - - - - 10 Cloudy - 16.7 1017.4 0.0
24/02:49am ENE 2 5 - - - - 10 Partly cloudy - 16.6 1017.3 0.0
24/02:30am ENE 5 6 - - - - 10 Partly cloudy - 16.7 1017.4 0.0
24/02:13am CALM 0 0 - - - - 10 Partly cloudy - 16.8 1017.8 0.0
24/02:00am CALM 0 0 - - - - 10 Partly cloudy - 16.6 1018.0 0.0
24/01:30am NNE 4 5 - - - - 10 Partly cloudy - 16.6 1018.2 0.0
24/01:00am CALM 0 0 - - - - 10 Partly cloudy - 17.7 1018.3 0.0
24/12:30am SE 1 4 - - - - 10 Cloudy - 17.9 1018.4 0.0
24/12:00am E 3 6 - - - - 10 Partly cloudy - 17.8 1018.2 0.0
 
Date/Time
EDT
Wind Sea
Height
m
Swell Vis
km
Cloud Weather Temp
°C
Press
hPa
Rain since
9am
mm
Dir  Spd
kts
Gust
kts
Height
m
Period
s
Dir
23/11:30pm SSW 9 11 - - - - 10 Partly cloudy - 19.4 1018.2 0.0
23/11:00pm SE 2 5 - - - - 10 Partly cloudy - 19.6 1017.9 0.0
23/10:30pm NNE 9 12 - - - - 10 Cloudy - 20.3 1018.2 0.0
23/10:00pm NNE 7 8 - - - - 10 Partly cloudy - 18.1 1017.7 0.0
23/09:30pm ENE 5 7 - - - - 10 Partly cloudy - 17.1 1017.5 0.0
23/09:00pm ENE 3 5 - - - - 10 - - 17.3 1017.3 0.0
23/08:30pm CALM 0 0 - - - - 10 - - 18.8 1016.8 0.0
23/08:00pm CALM 0 0 - - - - 10 - - 19.9 1016.7 0.0
23/07:30pm W 4 4 - - - - 10 - - 21.4 1016.7 0.0
23/07:00pm W 5 7 - - - - 10 - - 22.4 1016.7 0.0
23/06:30pm WSW 6 8 - - - - 10 - - 23.1 1016.7 0.0
23/06:00pm WNW 8 10 - - - - 10 - - 24.1 1016.6 0.0
23/05:30pm WNW 9 12 - - - - 10 - - 24.7 1016.7 0.0
23/05:00pm NW 10 14 - - - - 10 - - 25.0 1016.7 0.0
23/04:30pm WNW 10 14 - - - - 10 - - 25.6 1016.5 0.0
23/04:00pm WNW 10 16 - - - - 10 - - 25.5 1016.6 0.0
23/03:30pm WNW 9 12 - - - - 10 - - 25.8 1016.9 0.0
23/03:00pm WNW 12 15 - - - - 10 - - 25.7 1017.2 0.0
23/02:30pm WNW 13 16 - - - - 10 - - 25.9 1017.4 0.0
23/02:00pm NNW 7 12 - - - - 10 - - 26.1 1017.7 0.0
23/01:30pm SW 7 10 - - - - 10 - - 24.0 1017.9 0.0
23/01:00pm NNE 11 15 - - - - 10 - - 24.9 1018.2 0.0
23/12:30pm NNE 12 17 - - - - 10 - - 24.8 1018.6 0.0
23/12:00pm N 12 16 - - - - 10 - - 24.3 1019.0 0.0
23/11:30am NNE 9 14 - - - - 10 - - 23.9 1019.4 0.0
23/11:00am N 9 14 - - - - 10 - - 23.0 1019.9 0.0
23/10:30am NE 12 16 - - - - 10 - - 22.3 1020.3 0.0
23/10:00am NNE 12 20 - - - - 10 Partly cloudy - 21.6 1020.5 0.0
23/09:30am NE 17 22 - - - - 10 - - 20.8 1020.4 0.0
23/09:00am NE 17 22 - - - - 10 - - 20.0 1020.4 0.0
23/08:33am NE 15 18 - - - - 10 Partly cloudy - 19.2 1020.6 0.0
23/08:30am NE 15 18 - - - - 10 Partly cloudy - 19.2 1020.5 0.0
23/08:02am NE 15 20 - - - - 10 Partly cloudy - 19.0 1020.5 0.0
23/08:00am NE 14 20 - - - - 10 Partly cloudy - 18.8 1020.5 0.0
23/07:56am ENE 12 19 - - - - 10 Partly cloudy - 18.8 1020.4 0.0
23/07:33am E 8 11 - - - - 10 Partly cloudy - 18.6 1020.3 0.0
23/07:30am E 8 11 - - - - 10 Partly cloudy - 18.4 1020.4 0.0
23/07:00am ENE 9 13 - - - - 10 Partly cloudy - 18.0 1020.4 0.0
23/06:30am E 6 8 - - - - 10 Partly cloudy - 17.0 1020.4 0.0
23/06:00am E 4 6 - - - - 10 Cloudy - 14.6 1020.7 0.0
23/05:30am CALM 0 0 - - - - 10 Partly cloudy - 13.5 1020.9 0.0
23/05:00am ESE 4 5 - - - - 10 Partly cloudy - 14.2 1020.8 0.0
23/04:30am ESE 5 6 - - - - 10 Partly cloudy - 13.4 1021.1 0.0
23/04:00am CALM 0 0 - - - - 10 Partly cloudy - 13.2 1021.6 0.0
23/03:30am E 6 7 - - - - 10 Partly cloudy - 14.2 1021.7 0.0
23/03:00am ESE 5 7 - - - - 10 Mostly cloudy - 12.7 1022.1 0.0
23/02:30am E 4 6 - - - - 10 Partly cloudy - 12.5 1022.4 0.0
23/02:00am E 3 5 - - - - 10 Partly cloudy - 12.0 1022.8 0.0
23/01:30am ENE 4 5 - - - - 10 Partly cloudy - 11.7 1023.0 0.0
23/01:00am ENE 4 5 - - - - 10 Cloudy - 11.1 1023.2 0.0
23/12:30am E 3 4 - - - - 10 Partly cloudy - 9.4 1023.4 0.0
23/12:00am ENE 4 4 - - - - 10 - - 9.3 1023.4 0.0
 
Date/Time
EDT
Wind Sea
Height
m
Swell Vis
km
Cloud Weather Temp
°C
Press
hPa
Rain since
9am
mm
Dir  Spd
kts
Gust
kts
Height
m
Period
s
Dir
22/11:30pm ENE 4 5 - - - - 10 - - 9.3 1023.5 0.0
22/11:00pm ENE 4 5 - - - - 10 - - 9.7 1023.7 0.0
22/10:30pm ENE 4 5 - - - - 10 - - 10.2 1023.9 0.0
22/10:00pm E 4 5 - - - - 10 - - 10.7 1024.1 0.0
22/09:30pm E 4 5 - - - - 10 - - 11.9 1024.2 0.0
22/09:00pm ENE 7 7 - - - - 10 - - 13.0 1024.1 0.0
22/08:30pm NE 7 8 - - - - 10 - - 14.1 1023.9 0.0
22/08:00pm NE 8 10 - - - - 10 - - 16.1 1023.6 0.0
22/07:30pm NE 9 13 - - - - 10 Partly cloudy - 16.9 1023.4 0.0
22/07:00pm NE 10 14 - - - - 10 Cloudy - 18.0 1023.3 0.0
22/06:30pm NE 12 16 - - - - 10 Cloudy - 18.3 1023.2 0.0
22/06:00pm NE 12 15 - - - - 10 Cloudy - 18.6 1023.2 0.0
22/05:30pm NE 11 14 - - - - 10 Cloudy - 18.7 1023.3 0.0
22/05:00pm NE 11 14 - - - - 10 Cloudy - 18.9 1023.5 0.0
22/04:30pm NE 9 13 - - - - 10 Cloudy - 19.1 1023.7 0.0
22/04:00pm NE 10 13 - - - - 10 Cloudy - 19.1 1023.8 0.0
22/03:30pm NNE 10 14 - - - - 10 Cloudy - 18.8 1024.1 0.0
22/03:00pm NNE 10 16 - - - - 10 Mostly cloudy - 19.0 1024.3 0.0
22/02:30pm NNE 10 15 - - - - 10 Cloudy - 19.1 1024.5 0.0
22/02:00pm NNE 10 13 - - - - 10 Cloudy - 19.0 1024.5 0.0
22/01:30pm NNE 9 15 - - - - 10 Partly cloudy - 19.6 1024.6 0.0
22/01:00pm NNE 9 14 - - - - 10 Partly cloudy - 19.9 1024.8 0.0
22/12:30pm NNE 10 14 - - - - 10 Partly cloudy - 19.6 1025.0 0.0
22/12:00pm NE 10 14 - - - - 10 Cloudy - 19.5 1025.2 0.0
22/11:30am NE 10 16 - - - - 10 Partly cloudy - 19.3 1025.2 0.0
22/11:00am NE 11 17 - - - - 10 Partly cloudy - 18.8 1025.3 0.0
22/10:30am NE 10 14 - - - - 10 Partly cloudy - 18.3 1025.3 0.0
22/10:00am NE 8 13 - - - - 10 Partly cloudy - 17.8 1025.4 0.0
22/09:30am ENE 8 11 - - - - 10 Partly cloudy - 18.0 1025.3 0.0
22/09:00am NNW 3 5 - - - - 10 - - 17.2 1024.9 0.0
22/08:30am ENE 6 7 - - - - 10 - - 15.2 1024.5 0.0
22/08:00am ENE 5 5 - - - - 10 Partly cloudy - 11.9 1024.1 0.0
22/07:30am ENE 5 6 - - - - 10 Partly cloudy - 9.3 1024.3 0.0
22/07:00am NE 5 6 - - - - 10 Cloudy - 8.2 1024.0 0.0
22/06:30am ENE 5 6 - - - - 10 Partly cloudy - 7.8 1023.8 0.0
22/06:00am ENE 5 6 - - - - 10 - - 7.6 1023.4 0.0
22/05:30am ENE 4 5 - - - - 10 Partly cloudy - 7.6 1023.2 0.0
22/05:00am ENE 5 6 - - - - 10 Cloudy - 8.0 1023.2 0.0
22/04:30am ENE 5 6 - - - - 10 Partly cloudy - 7.6 1023.4 0.0
22/04:00am ENE 5 6 - - - - 10 - - 7.8 1023.4 0.0
22/03:30am NE 4 4 - - - - 10 - - 6.8 1023.4 0.0
22/03:00am NE 4 4 - - - - 10 - - 8.3 1023.3 0.0
22/02:30am ENE 7 8 - - - - 10 - - 7.6 1023.1 0.0
22/02:00am ENE 7 8 - - - - 10 - - 7.8 1023.1 0.0
22/01:30am ENE 7 8 - - - - 10 - - 8.4 1023.3 0.0
22/01:00am E 4 6 - - - - 10 - - 7.6 1023.5 0.0
22/12:30am NE 5 6 - - - - 10 - - 8.6 1023.4 0.0
22/12:00am ENE 6 7 - - - - 10 - - 8.8 1023.4 0.0
 
Date/Time
EDT
Wind Sea
Height
m
Swell Vis
km
Cloud Weather Temp
°C
Press
hPa
Rain since
9am
mm
Dir  Spd
kts
Gust
kts
Height
m
Period
s
Dir
21/11:30pm ENE 6 7 - - - - 10 - - 8.9 1023.4 0.0
21/11:00pm ENE 5 5 - - - - 10 Partly cloudy - 9.8 1023.2 0.0
21/10:30pm NE 6 7 - - - - 10 - - 10.2 1022.8 0.0
21/10:00pm ENE 6 7 - - - - 10 - - 9.5 1022.5 0.0
21/09:30pm NE 6 7 - - - - 10 - - 11.5 1022.2 0.0
21/09:00pm ENE 6 7 - - - - 10 Cloudy - 11.6 1021.8 0.0

Other formats

Comma delimited format used in spreadsheet applications
http://www.bom.gov.au/fwo/IDV60701/IDV60701.94980.axf

JavaScript Object Notation format (JSON) in row-major order
http://www.bom.gov.au/fwo/IDV60701/IDV60701.94980.json

Data quality

Most of these data are generated automatically and are frequently updated. Quality checks on data are not normally performed. It is possible for incorrect values to appear. Refer to information at About Latest Weather Observations and please check the disclaimer before using these data.